<?xml version="1.0"?>
<gpx xmlns="http://www.topografix.com/GPX/1/1" xmlns:xsi="http://www.w3.org/2001/XMLSchema-instance" version="1.1" creator="AllTrails.com" xsi:schemaLocation="http://www.topografix.com/GPX/1/1 http://www.topografix.com/GPX/1/1/gpx.xsd">
  <metadata>
    <name><![CDATA[Panoramaweg Feldatal Tour I]]></name>
    <desc><![CDATA[]]></desc>
    <link href="http://www.alltrails.com">
      <text>AllTrails, LLC</text>
    </link>
    <bounds minlat="50.61001" minlon="9.17116" maxlat="50.65614" maxlon="9.22395"/>
  </metadata>
  <trk>
    <name><![CDATA[Panoramaweg Feldatal Tour I]]></name>
    <src>AllTrails</src>
    <trkseg>
      <trkpt lat="50.64983" lon="9.17172">
        <ele>321.42</ele>
        <time>2015-03-18T16:14:45Z</time>
      </trkpt>
      <trkpt lat="50.64976" lon="9.17197">
        <ele>320.96</ele>
      </trkpt>
      <trkpt lat="50.6501" lon="9.1725">
        <ele>321.72</ele>
      </trkpt>
      <trkpt lat="50.65014" lon="9.17277">
        <ele>320.55</ele>
      </trkpt>
      <trkpt lat="50.65003" lon="9.17316">
        <ele>319.17</ele>
      </trkpt>
      <trkpt lat="50.64991" lon="9.17359">
        <ele>318.37</ele>
      </trkpt>
      <trkpt lat="50.64946" lon="9.17345">
        <ele>327.17</ele>
      </trkpt>
      <trkpt lat="50.64929" lon="9.17284">
        <ele>326.9</ele>
        <time>2015-03-18T16:17:22Z</time>
      </trkpt>
      <trkpt lat="50.64838" lon="9.17195">
        <ele>324.57</ele>
        <time>2015-03-18T16:18:23Z</time>
      </trkpt>
      <trkpt lat="50.64716" lon="9.17116">
        <ele>328.42</ele>
        <time>2015-03-18T16:21:05Z</time>
      </trkpt>
      <trkpt lat="50.64702" lon="9.17117">
        <ele>327.49</ele>
        <time>2015-03-18T16:21:11Z</time>
      </trkpt>
      <trkpt lat="50.647" lon="9.17121">
        <ele>327.33</ele>
        <time>2015-03-18T16:21:16Z</time>
      </trkpt>
      <trkpt lat="50.64663" lon="9.17121">
        <ele>326.74</ele>
      </trkpt>
      <trkpt lat="50.64626" lon="9.17127">
        <ele>325.46</ele>
        <time>2015-03-18T16:21:58Z</time>
      </trkpt>
      <trkpt lat="50.64564" lon="9.17182">
        <ele>328.34</ele>
        <time>2015-03-18T16:22:43Z</time>
      </trkpt>
      <trkpt lat="50.64526" lon="9.1723">
        <ele>331.01</ele>
        <time>2015-03-18T16:23:26Z</time>
      </trkpt>
      <trkpt lat="50.64496" lon="9.17239">
        <ele>334.18</ele>
        <time>2015-03-18T16:24:04Z</time>
      </trkpt>
      <trkpt lat="50.64445" lon="9.17291">
        <ele>334.52</ele>
        <time>2015-03-18T16:24:54Z</time>
      </trkpt>
      <trkpt lat="50.64405" lon="9.17335">
        <ele>336.22</ele>
        <time>2015-03-18T16:25:16Z</time>
      </trkpt>
      <trkpt lat="50.64362" lon="9.17243">
        <ele>338.33</ele>
        <time>2015-03-18T16:26:17Z</time>
      </trkpt>
      <trkpt lat="50.64393" lon="9.17189">
        <ele>332.95</ele>
      </trkpt>
      <trkpt lat="50.64432" lon="9.17148">
        <ele>335.88</ele>
        <time>2015-03-18T16:27:11Z</time>
      </trkpt>
      <trkpt lat="50.64438" lon="9.17134">
        <ele>337.1</ele>
        <time>2015-03-18T16:27:19Z</time>
      </trkpt>
      <trkpt lat="50.64431" lon="9.17121">
        <ele>336.98</ele>
        <time>2015-03-18T16:27:26Z</time>
      </trkpt>
      <trkpt lat="50.64358" lon="9.17193">
        <ele>335.86</ele>
        <time>2015-03-18T16:27:54Z</time>
      </trkpt>
      <trkpt lat="50.64204" lon="9.17399">
        <ele>349.99</ele>
        <time>2015-03-18T16:30:39Z</time>
      </trkpt>
      <trkpt lat="50.64144" lon="9.1745">
        <ele>348.69</ele>
      </trkpt>
      <trkpt lat="50.64037" lon="9.17478">
        <ele>349.31</ele>
      </trkpt>
      <trkpt lat="50.6393" lon="9.17488">
        <ele>358.51</ele>
        <time>2015-03-18T16:33:23Z</time>
      </trkpt>
      <trkpt lat="50.63884" lon="9.17492">
        <ele>362.52</ele>
      </trkpt>
      <trkpt lat="50.63702" lon="9.17445">
        <ele>373.9</ele>
        <time>2015-03-18T16:35:46Z</time>
      </trkpt>
      <trkpt lat="50.63453" lon="9.17397">
        <ele>383.85</ele>
        <time>2015-03-18T16:38:27Z</time>
      </trkpt>
      <trkpt lat="50.63438" lon="9.17395">
        <ele>382.66</ele>
        <time>2015-03-18T16:38:37Z</time>
      </trkpt>
      <trkpt lat="50.63408" lon="9.17393">
        <ele>381.19</ele>
        <time>2015-03-18T16:38:41Z</time>
      </trkpt>
      <trkpt lat="50.63101" lon="9.17474">
        <ele>377.54</ele>
        <time>2015-03-18T16:42:06Z</time>
      </trkpt>
      <trkpt lat="50.62992" lon="9.17633">
        <ele>387.51</ele>
        <time>2015-03-18T16:43:46Z</time>
      </trkpt>
      <trkpt lat="50.62794" lon="9.17772">
        <ele>396.62</ele>
        <time>2015-03-18T16:46:09Z</time>
      </trkpt>
      <trkpt lat="50.6256" lon="9.17809">
        <ele>403.59</ele>
        <time>2015-03-18T16:48:47Z</time>
      </trkpt>
      <trkpt lat="50.6231" lon="9.17845">
        <ele>399.32</ele>
        <time>2015-03-18T16:51:56Z</time>
      </trkpt>
      <trkpt lat="50.62076" lon="9.17849">
        <ele>407.76</ele>
        <time>2015-03-18T16:54:23Z</time>
      </trkpt>
      <trkpt lat="50.62063" lon="9.17852">
        <ele>407.9</ele>
        <time>2015-03-18T16:54:28Z</time>
      </trkpt>
      <trkpt lat="50.61899" lon="9.17972">
        <ele>406.09</ele>
        <time>2015-03-18T16:56:31Z</time>
      </trkpt>
      <trkpt lat="50.61889" lon="9.17974">
        <ele>405.2</ele>
        <time>2015-03-18T16:56:39Z</time>
      </trkpt>
      <trkpt lat="50.61884" lon="9.17967">
        <ele>405.14</ele>
        <time>2015-03-18T16:56:43Z</time>
      </trkpt>
      <trkpt lat="50.61869" lon="9.17903">
        <ele>405.85</ele>
        <time>2015-03-18T16:57:14Z</time>
      </trkpt>
      <trkpt lat="50.61861" lon="9.17898">
        <ele>407.01</ele>
        <time>2015-03-18T16:57:20Z</time>
      </trkpt>
      <trkpt lat="50.61855" lon="9.17899">
        <ele>407.66</ele>
        <time>2015-03-18T16:57:24Z</time>
      </trkpt>
      <trkpt lat="50.6181" lon="9.17907">
        <ele>413.65</ele>
        <time>2015-03-18T16:57:54Z</time>
      </trkpt>
      <trkpt lat="50.61721" lon="9.17868">
        <ele>416.96</ele>
        <time>2015-03-18T16:58:58Z</time>
      </trkpt>
      <trkpt lat="50.61697" lon="9.17851">
        <ele>416.42</ele>
        <time>2015-03-18T16:59:17Z</time>
      </trkpt>
      <trkpt lat="50.61686" lon="9.17854">
        <ele>416.33</ele>
        <time>2015-03-18T16:59:23Z</time>
      </trkpt>
      <trkpt lat="50.61682" lon="9.17862">
        <ele>415.99</ele>
        <time>2015-03-18T16:59:27Z</time>
      </trkpt>
      <trkpt lat="50.61684" lon="9.18087">
        <ele>417.44</ele>
        <time>2015-03-18T17:01:03Z</time>
      </trkpt>
      <trkpt lat="50.61631" lon="9.18147">
        <ele>415.66</ele>
        <time>2015-03-18T17:02:20Z</time>
      </trkpt>
      <trkpt lat="50.61661" lon="9.18201">
        <ele>411.6</ele>
        <time>2015-03-18T17:02:25Z</time>
      </trkpt>
      <trkpt lat="50.61669" lon="9.18309">
        <ele>413.26</ele>
        <time>2015-03-18T17:05:08Z</time>
      </trkpt>
      <trkpt lat="50.61656" lon="9.18462">
        <ele>418.23</ele>
        <time>2015-03-18T17:05:13Z</time>
      </trkpt>
      <trkpt lat="50.61663" lon="9.1861">
        <ele>418.04</ele>
        <time>2015-03-18T17:05:39Z</time>
      </trkpt>
      <trkpt lat="50.61665" lon="9.18643">
        <ele>417.71</ele>
        <time>2015-03-18T17:05:45Z</time>
      </trkpt>
      <trkpt lat="50.61664" lon="9.18676">
        <ele>415.91</ele>
        <time>2015-03-18T17:06:02Z</time>
      </trkpt>
      <trkpt lat="50.61618" lon="9.18789">
        <ele>415.2</ele>
      </trkpt>
      <trkpt lat="50.61458" lon="9.193">
        <ele>423.56</ele>
      </trkpt>
      <trkpt lat="50.6139" lon="9.19445">
        <ele>427.94</ele>
      </trkpt>
      <trkpt lat="50.61323" lon="9.19558">
        <ele>437.49</ele>
        <time>2015-03-18T17:13:38Z</time>
      </trkpt>
      <trkpt lat="50.61334" lon="9.19564">
        <ele>435.93</ele>
        <time>2015-03-18T17:13:46Z</time>
      </trkpt>
      <trkpt lat="50.6141" lon="9.1971">
        <ele>437.08</ele>
        <time>2015-03-18T17:15:06Z</time>
      </trkpt>
      <trkpt lat="50.61462" lon="9.19959">
        <ele>459.2</ele>
        <time>2015-03-18T17:17:33Z</time>
      </trkpt>
      <trkpt lat="50.61416" lon="9.20054">
        <ele>462.82</ele>
        <time>2015-03-18T17:18:43Z</time>
      </trkpt>
      <trkpt lat="50.61288" lon="9.2019">
        <ele>465.24</ele>
        <time>2015-03-18T17:20:27Z</time>
      </trkpt>
      <trkpt lat="50.61314" lon="9.20266">
        <ele>470.94</ele>
      </trkpt>
      <trkpt lat="50.6135" lon="9.20326">
        <ele>480.9</ele>
        <time>2015-03-18T17:21:41Z</time>
      </trkpt>
      <trkpt lat="50.61126" lon="9.20553">
        <ele>472.51</ele>
        <time>2015-03-18T17:25:01Z</time>
      </trkpt>
      <trkpt lat="50.61053" lon="9.20607">
        <ele>474.05</ele>
        <time>2015-03-18T17:25:55Z</time>
      </trkpt>
      <trkpt lat="50.61011" lon="9.2059">
        <ele>479.06</ele>
        <time>2015-03-18T17:26:34Z</time>
      </trkpt>
      <trkpt lat="50.61006" lon="9.20595">
        <ele>478.17</ele>
        <time>2015-03-18T17:26:40Z</time>
      </trkpt>
      <trkpt lat="50.61002" lon="9.20625">
        <ele>476.07</ele>
        <time>2015-03-18T17:26:44Z</time>
      </trkpt>
      <trkpt lat="50.61001" lon="9.20979">
        <ele>459.24</ele>
        <time>2015-03-18T17:30:15Z</time>
      </trkpt>
      <trkpt lat="50.61049" lon="9.20983">
        <ele>452.59</ele>
        <time>2015-03-18T17:30:19Z</time>
      </trkpt>
      <trkpt lat="50.61086" lon="9.20995">
        <ele>454.49</ele>
        <time>2015-03-18T17:31:44Z</time>
      </trkpt>
      <trkpt lat="50.61183" lon="9.21023">
        <ele>443.4</ele>
        <time>2015-03-18T17:32:50Z</time>
      </trkpt>
      <trkpt lat="50.61266" lon="9.21057">
        <ele>440.86</ele>
        <time>2015-03-18T17:34:13Z</time>
      </trkpt>
      <trkpt lat="50.61306" lon="9.21113">
        <ele>440.98</ele>
      </trkpt>
      <trkpt lat="50.61387" lon="9.21164">
        <ele>433.09</ele>
      </trkpt>
      <trkpt lat="50.61473" lon="9.21168">
        <ele>424.0</ele>
        <time>2015-03-18T17:37:06Z</time>
      </trkpt>
      <trkpt lat="50.61567" lon="9.2111">
        <ele>423.09</ele>
        <time>2015-03-18T17:38:43Z</time>
      </trkpt>
      <trkpt lat="50.61581" lon="9.21106">
        <ele>423.21</ele>
        <time>2015-03-18T17:39:13Z</time>
      </trkpt>
      <trkpt lat="50.61599" lon="9.21106">
        <ele>423.29</ele>
        <time>2015-03-18T17:39:23Z</time>
      </trkpt>
      <trkpt lat="50.61617" lon="9.21112">
        <ele>422.13</ele>
        <time>2015-03-18T17:39:35Z</time>
      </trkpt>
      <trkpt lat="50.61625" lon="9.21114">
        <ele>420.84</ele>
        <time>2015-03-18T17:39:40Z</time>
      </trkpt>
      <trkpt lat="50.61655" lon="9.21109">
        <ele>417.07</ele>
        <time>2015-03-18T17:39:46Z</time>
      </trkpt>
      <trkpt lat="50.61679" lon="9.21111">
        <ele>414.13</ele>
        <time>2015-03-18T17:40:33Z</time>
      </trkpt>
      <trkpt lat="50.61685" lon="9.21118">
        <ele>412.85</ele>
        <time>2015-03-18T17:40:45Z</time>
      </trkpt>
      <trkpt lat="50.61721" lon="9.21148">
        <ele>411.88</ele>
        <time>2015-03-18T17:41:14Z</time>
      </trkpt>
      <trkpt lat="50.61748" lon="9.21196">
        <ele>411.26</ele>
      </trkpt>
      <trkpt lat="50.61767" lon="9.2127">
        <ele>418.17</ele>
        <time>2015-03-18T17:42:56Z</time>
      </trkpt>
      <trkpt lat="50.61813" lon="9.21295">
        <ele>423.83</ele>
        <time>2015-03-18T17:43:34Z</time>
      </trkpt>
      <trkpt lat="50.61828" lon="9.21252">
        <ele>421.0</ele>
        <time>2015-03-18T17:43:54Z</time>
      </trkpt>
      <trkpt lat="50.61852" lon="9.21249">
        <ele>425.62</ele>
        <time>2015-03-18T17:44:09Z</time>
      </trkpt>
      <trkpt lat="50.61872" lon="9.21256">
        <ele>428.3</ele>
        <time>2015-03-18T17:44:26Z</time>
      </trkpt>
      <trkpt lat="50.61887" lon="9.21279">
        <ele>430.06</ele>
        <time>2015-03-18T17:44:40Z</time>
      </trkpt>
      <trkpt lat="50.619" lon="9.21309">
        <ele>432.07</ele>
        <time>2015-03-18T17:44:54Z</time>
      </trkpt>
      <trkpt lat="50.6192" lon="9.21332">
        <ele>434.47</ele>
        <time>2015-03-18T17:45:09Z</time>
      </trkpt>
      <trkpt lat="50.61877" lon="9.21372">
        <ele>440.56</ele>
        <time>2015-03-18T17:45:51Z</time>
      </trkpt>
      <trkpt lat="50.61865" lon="9.21397">
        <ele>442.01</ele>
        <time>2015-03-18T17:46:06Z</time>
      </trkpt>
      <trkpt lat="50.61856" lon="9.21425">
        <ele>444.58</ele>
        <time>2015-03-18T17:46:21Z</time>
      </trkpt>
      <trkpt lat="50.61852" lon="9.2146">
        <ele>449.22</ele>
        <time>2015-03-18T17:46:38Z</time>
      </trkpt>
      <trkpt lat="50.61863" lon="9.21582">
        <ele>457.34</ele>
        <time>2015-03-18T17:47:36Z</time>
      </trkpt>
      <trkpt lat="50.61875" lon="9.21607">
        <ele>461.63</ele>
        <time>2015-03-18T17:48:08Z</time>
      </trkpt>
      <trkpt lat="50.61918" lon="9.21781">
        <ele>467.25</ele>
      </trkpt>
      <trkpt lat="50.61949" lon="9.2187">
        <ele>471.92</ele>
        <time>2015-03-18T17:50:21Z</time>
      </trkpt>
      <trkpt lat="50.62012" lon="9.22016">
        <ele>485.01</ele>
        <time>2015-03-18T17:51:50Z</time>
      </trkpt>
      <trkpt lat="50.62063" lon="9.22174">
        <ele>492.07</ele>
      </trkpt>
      <trkpt lat="50.62154" lon="9.22329">
        <ele>499.4</ele>
      </trkpt>
      <trkpt lat="50.62183" lon="9.22395">
        <ele>497.72</ele>
      </trkpt>
      <trkpt lat="50.62233" lon="9.22314">
        <ele>498.9</ele>
        <time>2015-03-18T17:56:36Z</time>
      </trkpt>
      <trkpt lat="50.62343" lon="9.22126">
        <ele>504.72</ele>
        <time>2015-03-18T18:00:54Z</time>
      </trkpt>
      <trkpt lat="50.62517" lon="9.22018">
        <ele>512.05</ele>
        <time>2015-03-18T18:03:05Z</time>
      </trkpt>
      <trkpt lat="50.62875" lon="9.21745">
        <ele>504.41</ele>
        <time>2015-03-18T18:29:44Z</time>
      </trkpt>
      <trkpt lat="50.62906" lon="9.217">
        <ele>501.21</ele>
        <time>2015-03-18T18:29:50Z</time>
      </trkpt>
      <trkpt lat="50.63039" lon="9.21534">
        <ele>488.61</ele>
        <time>2015-03-18T18:32:43Z</time>
      </trkpt>
      <trkpt lat="50.63143" lon="9.21485">
        <ele>490.15</ele>
        <time>2015-03-18T18:33:46Z</time>
      </trkpt>
      <trkpt lat="50.63537" lon="9.22303">
        <ele>486.69</ele>
        <time>2015-03-18T18:52:08Z</time>
      </trkpt>
      <trkpt lat="50.63634" lon="9.22108">
        <ele>483.56</ele>
      </trkpt>
      <trkpt lat="50.63739" lon="9.21938">
        <ele>472.67</ele>
        <time>2015-03-18T18:55:40Z</time>
      </trkpt>
      <trkpt lat="50.63852" lon="9.2167">
        <ele>464.85</ele>
        <time>2015-03-18T18:57:46Z</time>
      </trkpt>
      <trkpt lat="50.63891" lon="9.21478">
        <ele>454.24</ele>
        <time>2015-03-18T18:59:36Z</time>
      </trkpt>
      <trkpt lat="50.63953" lon="9.21311">
        <ele>452.87</ele>
        <time>2015-03-18T19:01:32Z</time>
      </trkpt>
      <trkpt lat="50.63957" lon="9.21217">
        <ele>452.9</ele>
      </trkpt>
      <trkpt lat="50.64255" lon="9.21285">
        <ele>468.0</ele>
        <time>2015-03-18T19:06:22Z</time>
      </trkpt>
      <trkpt lat="50.64698" lon="9.2125">
        <ele>457.74</ele>
        <time>2015-03-18T19:12:36Z</time>
      </trkpt>
      <trkpt lat="50.6475" lon="9.21294">
        <ele>454.66</ele>
        <time>2015-03-18T19:14:01Z</time>
      </trkpt>
      <trkpt lat="50.64878" lon="9.21228">
        <ele>443.45</ele>
        <time>2015-03-18T19:15:39Z</time>
      </trkpt>
      <trkpt lat="50.64981" lon="9.21059">
        <ele>437.71</ele>
        <time>2015-03-18T19:17:22Z</time>
      </trkpt>
      <trkpt lat="50.6505" lon="9.20744">
        <ele>422.81</ele>
      </trkpt>
      <trkpt lat="50.65106" lon="9.20527">
        <ele>415.37</ele>
        <time>2015-03-18T19:22:49Z</time>
      </trkpt>
      <trkpt lat="50.65147" lon="9.20471">
        <ele>411.17</ele>
      </trkpt>
      <trkpt lat="50.65197" lon="9.20452">
        <ele>419.73</ele>
      </trkpt>
      <trkpt lat="50.65226" lon="9.20387">
        <ele>417.7</ele>
      </trkpt>
      <trkpt lat="50.65242" lon="9.20287">
        <ele>412.95</ele>
      </trkpt>
      <trkpt lat="50.65313" lon="9.20219">
        <ele>409.46</ele>
        <time>2015-03-18T19:26:38Z</time>
      </trkpt>
      <trkpt lat="50.65549" lon="9.19938">
        <ele>406.53</ele>
        <time>2015-03-18T19:30:36Z</time>
      </trkpt>
      <trkpt lat="50.65519" lon="9.19858">
        <ele>400.81</ele>
      </trkpt>
      <trkpt lat="50.65411" lon="9.19629">
        <ele>385.77</ele>
        <time>2015-03-18T19:34:40Z</time>
      </trkpt>
      <trkpt lat="50.65408" lon="9.19594">
        <ele>387.3</ele>
        <time>2015-03-18T19:34:55Z</time>
      </trkpt>
      <trkpt lat="50.65427" lon="9.19563">
        <ele>386.18</ele>
      </trkpt>
      <trkpt lat="50.65469" lon="9.19526">
        <ele>385.6</ele>
      </trkpt>
      <trkpt lat="50.6553" lon="9.1944">
        <ele>385.4</ele>
      </trkpt>
      <trkpt lat="50.65568" lon="9.1936">
        <ele>389.57</ele>
      </trkpt>
      <trkpt lat="50.65614" lon="9.19275">
        <ele>389.89</ele>
        <time>2015-03-18T19:38:46Z</time>
      </trkpt>
      <trkpt lat="50.65544" lon="9.19213">
        <ele>388.92</ele>
        <time>2015-03-18T19:39:54Z</time>
      </trkpt>
      <trkpt lat="50.65479" lon="9.19186">
        <ele>384.25</ele>
        <time>2015-03-18T19:41:24Z</time>
      </trkpt>
      <trkpt lat="50.65386" lon="9.1912">
        <ele>380.37</ele>
        <time>2015-03-18T19:43:09Z</time>
      </trkpt>
      <trkpt lat="50.6527" lon="9.18979">
        <ele>366.65</ele>
        <time>2015-03-18T19:45:33Z</time>
      </trkpt>
      <trkpt lat="50.65246" lon="9.18974">
        <ele>363.68</ele>
        <time>2015-03-18T19:45:54Z</time>
      </trkpt>
      <trkpt lat="50.65061" lon="9.18517">
        <ele>349.37</ele>
        <time>2015-03-18T19:51:02Z</time>
      </trkpt>
      <trkpt lat="50.65053" lon="9.18495">
        <ele>348.46</ele>
        <time>2015-03-18T19:51:37Z</time>
      </trkpt>
      <trkpt lat="50.65009" lon="9.18252">
        <ele>341.42</ele>
        <time>2015-03-18T19:54:03Z</time>
      </trkpt>
      <trkpt lat="50.65003" lon="9.18238">
        <ele>340.68</ele>
        <time>2015-03-18T19:54:13Z</time>
      </trkpt>
      <trkpt lat="50.64993" lon="9.18225">
        <ele>339.32</ele>
        <time>2015-03-18T19:54:37Z</time>
      </trkpt>
      <trkpt lat="50.64938" lon="9.1812">
        <ele>327.33</ele>
        <time>2015-03-18T19:55:48Z</time>
      </trkpt>
      <trkpt lat="50.64927" lon="9.18116">
        <ele>326.61</ele>
        <time>2015-03-18T19:56:00Z</time>
      </trkpt>
      <trkpt lat="50.64914" lon="9.18131">
        <ele>326.73</ele>
        <time>2015-03-18T19:56:22Z</time>
      </trkpt>
      <trkpt lat="50.64897" lon="9.18146">
        <ele>328.4</ele>
        <time>2015-03-18T19:56:43Z</time>
      </trkpt>
      <trkpt lat="50.64876" lon="9.18151">
        <ele>330.7</ele>
        <time>2015-03-18T19:56:58Z</time>
      </trkpt>
      <trkpt lat="50.6486" lon="9.18158">
        <ele>333.08</ele>
        <time>2015-03-18T19:57:11Z</time>
      </trkpt>
      <trkpt lat="50.64846" lon="9.1813">
        <ele>330.76</ele>
      </trkpt>
      <trkpt lat="50.64867" lon="9.18033">
        <ele>323.53</ele>
        <time>2015-03-18T19:58:29Z</time>
      </trkpt>
      <trkpt lat="50.64888" lon="9.17999">
        <ele>324.97</ele>
        <time>2015-03-18T19:58:35Z</time>
      </trkpt>
      <trkpt lat="50.64901" lon="9.17912">
        <ele>325.0</ele>
      </trkpt>
      <trkpt lat="50.64944" lon="9.17756">
        <ele>325.99</ele>
      </trkpt>
      <trkpt lat="50.65013" lon="9.17458">
        <ele>319.42</ele>
      </trkpt>
      <trkpt lat="50.65038" lon="9.17341">
        <ele>316.56</ele>
      </trkpt>
      <trkpt lat="50.65056" lon="9.17277">
        <ele>321.04</ele>
      </trkpt>
      <trkpt lat="50.65047" lon="9.17234">
        <ele>322.49</ele>
      </trkpt>
      <trkpt lat="50.65023" lon="9.17199">
        <ele>322.65</ele>
      </trkpt>
      <trkpt lat="50.65024" lon="9.17169">
        <ele>322.72</ele>
      </trkpt>
      <trkpt lat="50.65004" lon="9.17135">
        <ele>321.76</ele>
        <time>2015-03-18T20:32:31Z</time>
      </trkpt>
      <trkpt lat="50.64986" lon="9.17163">
        <ele>321.7</ele>
        <time>2015-03-18T20:33:02Z</time>
      </trkpt>
    </trkseg>
  </trk>
</gpx>
